Northwest Sanderling — VNVZ — position and weather

sailwx.info

Track history (hours):
 
Tides and Currents Weather Stations Pressure Air Temp Water Temp Dewpoint Dewpoint Depression Visibility Wind Speed Wind Dir Waves Ship Positions

Northwest Sanderling

Last reported at 2016-Feb-05 23:06 UTC. Time now 2016-Feb-06 20:39 UTC.
Position S 20°30' E 116°45'.

Length 272 m; beam 47.2 m; draft 11.4 m.

Type: Ship (hazmat cat A). MMSI: 503000050.

Date/timePositionNaut miles runAvg speedWind from/ knotsBaromVisibWave heightAir tempDewpointWater temp
2016-Feb-05 23:06S 20°30' E 116°45'0 0.1
2016-Feb-05 22:30S 20°30' E 116°45'0 0.0
2016-Feb-05 19:30S 20°30' E 116°45'0 0.0
2016-Feb-05 16:24S 20°30' E 116°45'0 0.0
2016-Feb-05 15:30S 20°30' E 116°45'0 0.0
2016-Feb-05 14:30S 20°30' E 116°45'0 0.0
2016-Feb-05 09:24S 20°30' E 116°45'0 0.0
2016-Feb-05 07:24S 20°30' E 116°45'0 0.0
2016-Feb-05 04:30S 20°30' E 116°45'0 0.1
2016-Feb-05 02:30S 20°30' E 116°45'0 0.0
2016-Feb-05 00:30S 20°30' E 116°45'4 4.3
2016-Feb-04 23:30S 20°26' E 116°44'8 7.5
2016-Feb-04 22:26S 20°18' E 116°46'2211.2
2016-Feb-04 20:26S 19°59' E 116°58'3910.0
2016-Feb-04 16:33S 19°25' E 117°18'101 6.1
2016-Feb-04 00:00S 17°54' E 118°06'9913.0 220 / 61010.410.8 0.530.023.528.2
2016-Feb-03 16:20S 19°23' E 117°19'6 6.0
2016-Feb-03 15:16S 19°26' E 117°13'2311.8
2016-Feb-03 13:17S 19°48' E 117°05'1212.1
2016-Feb-03 12:16S 19°59' E 116°60'7 5.9
2016-Feb-03 11:03S 19°52' E 117°01'712.6
2016-Feb-03 10:32S 19°46' E 117°05'13212.5
2016-Feb-03 00:00S 17°48' E 118°06'13 0.6 230 / 121009.710.8 1.027.021.028.2
2016-Feb-02 00:00S 18°00' E 118°00'330 6.9 240 / 161007.410.8 1.027.024.928.2
2016-Jan-31 00:00S 13°12' E 120°48'   310 / 141006.710.8 2.028.024.430.6
2016-Jan-27 00:00N 03°42' E 128°06'   080 / 121014.910.8 1.527.024.128.3
Track history (hours):
 
Tides and Currents Weather Stations Pressure Air Temp Water Temp Dewpoint Dewpoint Depression Visibility Wind Speed Wind Dir Waves Ship Positions

Northwest Sanderling

Last reported at 2016-Feb-05 23:06 UTC. Time now 2016-Feb-06 20:39 UTC.
Position S 20°30' E 116°45'.

Length 272 m; beam 47.2 m; draft 11.4 m.

Type: Ship (hazmat cat A). MMSI: 503000050.

Date/timePositionNaut miles runAvg speedWind from/ knotsBaromVisibWave heightAir tempDewpointWater temp
2016-Feb-05 23:06S 20°30' E 116°45'0 0.1
2016-Feb-05 22:30S 20°30' E 116°45'0 0.0
2016-Feb-05 19:30S 20°30' E 116°45'0 0.0
2016-Feb-05 16:24S 20°30' E 116°45'0 0.0
2016-Feb-05 15:30S 20°30' E 116°45'0 0.0
2016-Feb-05 14:30S 20°30' E 116°45'0 0.0
2016-Feb-05 09:24S 20°30' E 116°45'0 0.0
2016-Feb-05 07:24S 20°30' E 116°45'0 0.0
2016-Feb-05 04:30S 20°30' E 116°45'0 0.1
2016-Feb-05 02:30S 20°30' E 116°45'0 0.0
2016-Feb-05 00:30S 20°30' E 116°45'4 4.3
2016-Feb-04 23:30S 20°26' E 116°44'8 7.5
2016-Feb-04 22:26S 20°18' E 116°46'2211.2
2016-Feb-04 20:26S 19°59' E 116°58'3910.0
2016-Feb-04 16:33S 19°25' E 117°18'101 6.1
2016-Feb-04 00:00S 17°54' E 118°06'9913.0 220 / 61010.410.8 0.530.023.528.2
2016-Feb-03 16:20S 19°23' E 117°19'6 6.0
2016-Feb-03 15:16S 19°26' E 117°13'2311.8
2016-Feb-03 13:17S 19°48' E 117°05'1212.1
2016-Feb-03 12:16S 19°59' E 116°60'7 5.9
2016-Feb-03 11:03S 19°52' E 117°01'712.6
2016-Feb-03 10:32S 19°46' E 117°05'13212.5
2016-Feb-03 00:00S 17°48' E 118°06'13 0.6 230 / 121009.710.8 1.027.021.028.2
2016-Feb-02 00:00S 18°00' E 118°00'330 6.9 240 / 161007.410.8 1.027.024.928.2
2016-Jan-31 00:00S 13°12' E 120°48'   310 / 141006.710.8 2.028.024.430.6
2016-Jan-27 00:00N 03°42' E 128°06'   080 / 121014.910.8 1.527.024.128.3

Dump ship's entire track history